createdAt,value
2017-10-27T00:03:22.803Z,1015.22
2017-10-27T00:08:19.494Z,1015.28
2017-10-27T00:13:14.629Z,1015.23
2017-10-27T00:18:11.584Z,1015.37
2017-10-27T00:23:07.289Z,1015.36
2017-10-27T00:28:03.772Z,1015.36
2017-10-27T00:32:59.476Z,1015.23
2017-10-27T00:37:56.526Z,1015.16
2017-10-27T00:42:52.626Z,1015.12
2017-10-27T00:47:48.532Z,1015.10
2017-10-27T00:52:44.231Z,1015.07
2017-10-27T00:57:41.671Z,1015.05
2017-10-27T01:02:36.892Z,1014.93
2017-10-27T01:07:32.912Z,1014.88
2017-10-27T01:12:29.834Z,1014.94
2017-10-27T01:17:26.253Z,1014.82
2017-10-27T01:22:21.652Z,1014.80
2017-10-27T01:27:17.012Z,1014.71
2017-10-27T01:32:12.826Z,1014.68
2017-10-27T01:37:09.656Z,1014.72
2017-10-27T01:42:05.547Z,1014.67
2017-10-27T01:47:02.277Z,1014.62
2017-10-27T01:51:57.683Z,1014.63
2017-10-27T01:56:55.538Z,1014.48
2017-10-27T02:01:51.717Z,1014.51
2017-10-27T02:06:46.946Z,1014.31
2017-10-27T02:11:42.718Z,1014.26
2017-10-27T02:16:38.275Z,1014.27
2017-10-27T02:21:34.006Z,1014.37
2017-10-27T02:26:30.596Z,1014.39
2017-10-27T02:31:25.994Z,1014.27
2017-10-27T02:36:22.877Z,1014.31
2017-10-27T02:41:18.500Z,1014.18
2017-10-27T02:46:14.308Z,1014.19
2017-10-27T02:51:11.210Z,1014.29
2017-10-27T02:56:07.819Z,1014.20
2017-10-27T03:01:03.336Z,1014.18
2017-10-27T03:05:59.126Z,1014.24
2017-10-27T03:10:54.884Z,1014.24
2017-10-27T03:15:50.766Z,1014.26
2017-10-27T03:20:46.708Z,1014.41
2017-10-27T03:25:42.528Z,1014.45
2017-10-27T03:30:40.055Z,1014.49
2017-10-27T03:35:35.685Z,1014.59
2017-10-27T03:40:31.632Z,1014.56
2017-10-27T03:45:27.535Z,1014.58
2017-10-27T03:50:24.190Z,1014.65
2017-10-27T03:55:19.726Z,1014.58
2017-10-27T04:00:16.609Z,1014.77
2017-10-27T04:05:12.359Z,1014.81
2017-10-27T04:10:08.701Z,1014.87
2017-10-27T04:15:04.098Z,1014.88
2017-10-27T04:19:59.936Z,1014.87
2017-10-27T04:24:56.611Z,1014.95
2017-10-27T04:29:53.195Z,1015.10
2017-10-27T04:34:50.008Z,1015.13
2017-10-27T04:39:46.494Z,1015.21
2017-10-27T04:44:43.078Z,1015.06
2017-10-27T04:49:39.602Z,1015.00
2017-10-27T04:54:35.306Z,1015.11
2017-10-27T04:59:32.050Z,1015.04
2017-10-27T05:04:27.782Z,1015.11
2017-10-27T05:09:23.571Z,1015.23
2017-10-27T05:14:20.587Z,1015.27
2017-10-27T05:19:16.380Z,1015.29
2017-10-27T05:24:12.151Z,1015.26
2017-10-27T05:29:07.908Z,1015.24
2017-10-27T05:34:04.682Z,1015.30
2017-10-27T05:39:01.168Z,1015.33
2017-10-27T05:43:58.304Z,1015.43
2017-10-27T05:48:54.674Z,1015.42
2017-10-27T05:53:50.149Z,1015.54
2017-10-27T05:58:46.124Z,1015.59
2017-10-27T06:03:42.566Z,1015.67
2017-10-27T06:08:37.942Z,1015.69
2017-10-27T06:13:34.778Z,1015.84
2017-10-27T06:18:30.780Z,1016.03
2017-10-27T06:23:26.765Z,1016.11
2017-10-27T06:28:22.602Z,1016.14
2017-10-27T06:33:18.643Z,1016.15
2017-10-27T06:38:14.792Z,1016.27
2017-10-27T06:43:10.526Z,1016.36
2017-10-27T06:48:07.369Z,1016.34
2017-10-27T06:53:05.038Z,1016.44
2017-10-27T06:58:00.393Z,1016.49
2017-10-27T07:02:56.108Z,1016.33
2017-10-27T07:07:52.064Z,1016.43
2017-10-27T07:12:47.734Z,1016.48
2017-10-27T07:17:43.922Z,1016.60
2017-10-27T07:22:41.196Z,1016.68
2017-10-27T07:27:37.929Z,1016.85
2017-10-27T07:32:35.293Z,1016.97
2017-10-27T07:37:32.791Z,1017.09
2017-10-27T07:42:28.240Z,1017.25
2017-10-27T07:47:25.290Z,1017.46
2017-10-27T07:52:21.118Z,1017.49
2017-10-27T07:57:16.783Z,1017.66
2017-10-27T08:02:15.110Z,1017.42
2017-10-27T08:07:10.342Z,1017.57
2017-10-27T08:12:07.276Z,1017.54
2017-10-27T08:17:02.932Z,1017.54
2017-10-27T08:22:00.273Z,1017.65
2017-10-27T08:26:56.007Z,1017.71
2017-10-27T08:31:51.939Z,1017.75
2017-10-27T08:36:47.776Z,1017.73
2017-10-27T08:41:44.628Z,1017.70
2017-10-27T08:46:41.743Z,1017.80
2017-10-27T08:51:39.260Z,1017.72
2017-10-27T08:56:34.782Z,1017.83
2017-10-27T09:01:31.194Z,1018.04
2017-10-27T09:06:27.264Z,1018.12
2017-10-27T09:11:23.201Z,1018.19
2017-10-27T09:16:19.578Z,1018.36
2017-10-27T09:21:16.578Z,1018.41
2017-10-27T09:26:13.419Z,1018.44
2017-10-27T09:31:12.124Z,1018.71
2017-10-27T09:36:07.587Z,1018.57
2017-10-27T09:41:03.850Z,1018.73
2017-10-27T09:46:02.259Z,1018.83
2017-10-27T09:50:58.609Z,1018.82
2017-10-27T09:55:55.273Z,1018.76
2017-10-27T10:00:51.889Z,1018.95
2017-10-27T10:05:48.142Z,1019.09
2017-10-27T10:10:43.737Z,1019.15
2017-10-27T10:15:40.218Z,1019.18
2017-10-27T10:20:37.304Z,1019.38
2017-10-27T10:25:33.401Z,1019.36
2017-10-27T10:30:29.280Z,1019.42
2017-10-27T10:35:25.063Z,1019.37
2017-10-27T10:40:21.734Z,1019.42
2017-10-27T10:45:17.140Z,1019.40
2017-10-27T10:50:13.666Z,1019.47
2017-10-27T10:55:10.198Z,1019.53
2017-10-27T11:00:06.879Z,1019.49
2017-10-27T11:05:03.816Z,1019.49
2017-10-27T11:10:02.658Z,1019.58
2017-10-27T11:14:58.807Z,1019.62
2017-10-27T11:19:54.445Z,1019.64
2017-10-27T11:24:50.359Z,1019.73
2017-10-27T11:29:47.649Z,1019.78
2017-10-27T11:34:43.393Z,1019.70
2017-10-27T11:39:39.496Z,1019.65
2017-10-27T11:44:35.439Z,1019.57
2017-10-27T11:49:31.269Z,1019.60
2017-10-27T11:54:28.440Z,1019.74
2017-10-27T11:59:25.071Z,1019.74
2017-10-27T12:04:20.459Z,1019.70
2017-10-27T12:09:17.106Z,1019.79
2017-10-27T12:14:15.131Z,1019.85
2017-10-27T12:19:10.926Z,1019.79
2017-10-27T12:24:07.975Z,1019.81
2017-10-27T12:29:04.578Z,1019.83
2017-10-27T12:34:00.026Z,1019.94
2017-10-27T12:38:55.843Z,1019.87
2017-10-27T12:43:51.459Z,1019.79
2017-10-27T12:48:47.140Z,1019.95
2017-10-27T12:53:44.081Z,1020.10
2017-10-27T12:58:41.017Z,1020.19
2017-10-27T13:03:37.497Z,1020.31
2017-10-27T13:08:32.975Z,1020.22
2017-10-27T13:13:28.413Z,1020.26
2017-10-27T13:18:24.348Z,1020.39
2017-10-27T13:23:20.125Z,1020.33
2017-10-27T13:28:17.009Z,1020.33
2017-10-27T13:33:14.139Z,1020.26
2017-10-27T13:38:09.664Z,1020.30
2017-10-27T13:43:05.563Z,1020.40
2017-10-27T13:48:01.392Z,1020.44
2017-10-27T13:52:59.475Z,1020.66
2017-10-27T13:57:55.036Z,1020.61
2017-10-27T14:02:51.144Z,1020.66
2017-10-27T14:07:47.861Z,1020.68
2017-10-27T14:12:43.721Z,1020.70
2017-10-27T14:17:40.004Z,1020.68
2017-10-27T14:22:35.697Z,1020.78
2017-10-27T14:27:33.448Z,1020.91
2017-10-27T14:32:28.981Z,1020.88
2017-10-27T14:37:24.624Z,1020.87
2017-10-27T14:42:20.330Z,1020.99
2017-10-27T14:47:18.785Z,1021.04
2017-10-27T14:52:13.910Z,1021.09
2017-10-27T14:57:10.725Z,1021.02
2017-10-27T15:02:06.274Z,1021.09
2017-10-27T15:07:02.148Z,1021.12
2017-10-27T15:11:58.963Z,1021.08
2017-10-27T15:16:54.594Z,1021.07
2017-10-27T15:21:50.590Z,1021.12
2017-10-27T15:26:46.283Z,1021.13
2017-10-27T15:31:41.990Z,1021.22
2017-10-27T15:36:37.823Z,1021.28
2017-10-27T15:41:33.894Z,1021.36
2017-10-27T15:46:31.670Z,1021.28
2017-10-27T15:51:28.398Z,1021.32
2017-10-27T15:56:24.031Z,1021.32
2017-10-27T16:01:19.299Z,1021.35
2017-10-27T16:06:17.111Z,1021.44
2017-10-27T16:11:12.456Z,1021.47
2017-10-27T16:16:08.875Z,1021.37
2017-10-27T16:21:04.489Z,1021.45
2017-10-27T16:26:01.349Z,1021.54
2017-10-27T16:30:57.848Z,1021.61
2017-10-27T16:35:53.990Z,1021.56
2017-10-27T16:40:51.322Z,1021.62
2017-10-27T16:45:46.530Z,1021.83
2017-10-27T16:50:42.515Z,1021.77
2017-10-27T16:55:39.049Z,1021.79
2017-10-27T17:00:34.365Z,1021.88
2017-10-27T17:05:30.123Z,1022.03
2017-10-27T17:10:26.877Z,1022.02
2017-10-27T17:15:23.950Z,1022.12
2017-10-27T17:20:19.413Z,1022.09
2017-10-27T17:25:16.358Z,1022.11
2017-10-27T17:30:12.867Z,1022.05
2017-10-27T17:35:08.408Z,1022.05
2017-10-27T17:40:06.437Z,1022.11
2017-10-27T17:45:01.756Z,1022.06
2017-10-27T17:49:57.690Z,1022.13
2017-10-27T17:54:53.567Z,1022.17
2017-10-27T17:59:50.535Z,1022.05
2017-10-27T18:04:46.199Z,1022.08
2017-10-27T18:09:43.051Z,1022.06
2017-10-27T18:14:40.001Z,1022.13
2017-10-27T18:19:37.781Z,1022.13
2017-10-27T18:24:33.506Z,1022.22
2017-10-27T18:29:29.738Z,1022.26
2017-10-27T18:34:26.626Z,1022.34
2017-10-27T18:39:22.515Z,1022.39
2017-10-27T18:44:18.165Z,1022.45
2017-10-27T18:49:14.786Z,1022.52
2017-10-27T18:54:10.388Z,1022.55
2017-10-27T18:59:06.450Z,1022.38
2017-10-27T19:04:03.176Z,1022.48
2017-10-27T19:08:58.747Z,1022.35
2017-10-27T19:13:54.718Z,1022.34
2017-10-27T19:18:51.569Z,1022.36
2017-10-27T19:23:47.687Z,1022.35
2017-10-27T19:28:44.648Z,1022.41
2017-10-27T19:33:39.852Z,1022.41
2017-10-27T19:38:35.677Z,1022.34
2017-10-27T19:43:33.526Z,1022.22
2017-10-27T19:48:28.743Z,1022.05
2017-10-27T19:53:24.892Z,1022.17
2017-10-27T19:58:21.439Z,1022.22
2017-10-27T20:03:16.958Z,1022.29
2017-10-27T20:08:13.460Z,1022.25
2017-10-27T20:13:09.332Z,1022.12
2017-10-27T20:18:07.084Z,1022.41
2017-10-27T20:23:04.321Z,1022.35
2017-10-27T20:27:59.403Z,1022.23
2017-10-27T20:32:56.212Z,1022.18
2017-10-27T20:37:51.840Z,1022.18
2017-10-27T20:42:47.508Z,1022.19
2017-10-27T20:47:43.753Z,1022.09
2017-10-27T20:52:40.700Z,1022.16
2017-10-27T20:57:36.201Z,1022.12
2017-10-27T21:02:32.900Z,1022.11
2017-10-27T21:07:28.644Z,1022.13
2017-10-27T21:12:25.501Z,1022.09
2017-10-27T21:17:20.741Z,1022.13
2017-10-27T21:22:17.773Z,1022.08
2017-10-27T21:27:13.081Z,1022.03
2017-10-27T21:32:10.566Z,1022.00
2017-10-27T21:37:05.899Z,1022.02
2017-10-27T21:42:01.836Z,1021.90
2017-10-27T21:46:57.626Z,1021.92
2017-10-27T21:51:55.080Z,1021.83
2017-10-27T21:56:51.575Z,1021.93
2017-10-27T22:01:47.979Z,1021.89
2017-10-27T22:06:43.524Z,1021.89
2017-10-27T22:11:40.847Z,1021.85
2017-10-27T22:16:36.331Z,1021.61
2017-10-27T22:21:33.438Z,1021.63
2017-10-27T22:26:30.009Z,1021.60
2017-10-27T22:31:26.989Z,1021.50
2017-10-27T22:36:22.457Z,1021.29
2017-10-27T22:41:19.235Z,1021.22
2017-10-27T22:46:14.747Z,1021.33
2017-10-27T22:51:10.291Z,1021.30
2017-10-27T22:56:06.371Z,1021.17
2017-10-27T23:01:02.172Z,1021.11
2017-10-27T23:05:58.013Z,1021.08
2017-10-27T23:10:54.903Z,1020.97
2017-10-27T23:15:51.501Z,1020.84
2017-10-27T23:20:48.543Z,1020.89
2017-10-27T23:25:44.296Z,1020.96
2017-10-27T23:30:40.082Z,1021.04
2017-10-27T23:35:37.074Z,1021.06
2017-10-27T23:40:33.625Z,1020.71
2017-10-27T23:45:30.346Z,1020.73
2017-10-27T23:50:26.608Z,1020.72
2017-10-27T23:55:23.278Z,1020.55
